sensor_id;sensor_type;location;lat;lon;timestamp;temperature;humidity
73137;DHT22;67767;45.636;11.756;2023-03-03T00:00:45;6.90;82.60
73137;DHT22;67767;45.636;11.756;2023-03-03T00:03:17;6.90;82.60
73137;DHT22;67767;45.636;11.756;2023-03-03T00:05:44;6.80;83.00
73137;DHT22;67767;45.636;11.756;2023-03-03T00:08:10;6.80;82.90
73137;DHT22;67767;45.636;11.756;2023-03-03T00:10:36;6.80;82.80
73137;DHT22;67767;45.636;11.756;2023-03-03T00:13:02;6.80;82.80
73137;DHT22;67767;45.636;11.756;2023-03-03T00:15:29;6.90;82.40
73137;DHT22;67767;45.636;11.756;2023-03-03T00:17:55;6.90;82.60
73137;DHT22;67767;45.636;11.756;2023-03-03T00:20:37;6.80;82.50
73137;DHT22;67767;45.636;11.756;2023-03-03T00:23:35;6.70;82.90
73137;DHT22;67767;45.636;11.756;2023-03-03T00:26:20;6.80;82.70
73137;DHT22;67767;45.636;11.756;2023-03-03T00:28:48;6.70;82.50
73137;DHT22;67767;45.636;11.756;2023-03-03T00:31:17;6.70;82.40
73137;DHT22;67767;45.636;11.756;2023-03-03T00:33:54;6.60;82.70
73137;DHT22;67767;45.636;11.756;2023-03-03T00:36:36;6.60;82.90
73137;DHT22;67767;45.636;11.756;2023-03-03T00:41:46;6.60;82.50
73137;DHT22;67767;45.636;11.756;2023-03-03T00:52:44;6.50;82.30
73137;DHT22;67767;45.636;11.756;2023-03-03T00:55:11;6.30;82.60
73137;DHT22;67767;45.636;11.756;2023-03-03T00:57:36;6.40;82.40
73137;DHT22;67767;45.636;11.756;2023-03-03T01:00:03;6.40;82.50
73137;DHT22;67767;45.636;11.756;2023-03-03T01:02:29;6.40;82.30
73137;DHT22;67767;45.636;11.756;2023-03-03T01:04:55;6.20;82.30
73137;DHT22;67767;45.636;11.756;2023-03-03T01:07:21;6.20;82.60
73137;DHT22;67767;45.636;11.756;2023-03-03T01:09:47;6.30;82.60
73137;DHT22;67767;45.636;11.756;2023-03-03T01:12:13;6.30;82.60
73137;DHT22;67767;45.636;11.756;2023-03-03T01:14:40;6.30;82.40
73137;DHT22;67767;45.636;11.756;2023-03-03T01:17:05;6.40;82.40
73137;DHT22;67767;45.636;11.756;2023-03-03T01:19:31;6.30;82.30
73137;DHT22;67767;45.636;11.756;2023-03-03T01:21:57;6.20;82.40
73137;DHT22;67767;45.636;11.756;2023-03-03T01:24:23;6.10;82.40
73137;DHT22;67767;45.636;11.756;2023-03-03T01:26:49;6.30;82.20
73137;DHT22;67767;45.636;11.756;2023-03-03T01:29:15;6.40;82.10
73137;DHT22;67767;45.636;11.756;2023-03-03T01:31:40;6.20;82.10
73137;DHT22;67767;45.636;11.756;2023-03-03T01:34:06;6.20;82.20
73137;DHT22;67767;45.636;11.756;2023-03-03T01:36:32;6.30;81.90
73137;DHT22;67767;45.636;11.756;2023-03-03T01:38:59;6.30;82.10
73137;DHT22;67767;45.636;11.756;2023-03-03T01:41:28;6.20;81.90
73137;DHT22;67767;45.636;11.756;2023-03-03T01:43:56;6.30;82.10
73137;DHT22;67767;45.636;11.756;2023-03-03T01:46:33;6.20;82.10
73137;DHT22;67767;45.636;11.756;2023-03-03T01:49:04;6.30;81.90
73137;DHT22;67767;45.636;11.756;2023-03-03T01:51:35;6.20;82.00
73137;DHT22;67767;45.636;11.756;2023-03-03T01:54:04;6.30;81.90
73137;DHT22;67767;45.636;11.756;2023-03-03T01:56:31;6.30;81.80
73137;DHT22;67767;45.636;11.756;2023-03-03T01:59:04;6.10;81.80
73137;DHT22;67767;45.636;11.756;2023-03-03T02:01:32;6.20;81.70
73137;DHT22;67767;45.636;11.756;2023-03-03T02:03:59;6.30;81.80
73137;DHT22;67767;45.636;11.756;2023-03-03T02:06:34;6.40;81.80
73137;DHT22;67767;45.636;11.756;2023-03-03T02:11:29;6.30;81.80
73137;DHT22;67767;45.636;11.756;2023-03-03T02:13:55;6.20;81.50
73137;DHT22;67767;45.636;11.756;2023-03-03T02:16:21;6.30;81.60
73137;DHT22;67767;45.636;11.756;2023-03-03T02:18:47;6.20;81.80
73137;DHT22;67767;45.636;11.756;2023-03-03T02:21:19;6.20;81.80
73137;DHT22;67767;45.636;11.756;2023-03-03T02:26:35;6.00;81.90
73137;DHT22;67767;45.636;11.756;2023-03-03T02:29:02;6.00;81.80
73137;DHT22;67767;45.636;11.756;2023-03-03T02:31:29;5.70;82.60
73137;DHT22;67767;45.636;11.756;2023-03-03T02:33:56;5.40;83.00
73137;DHT22;67767;45.636;11.756;2023-03-03T02:36:33;5.40;83.20
73137;DHT22;67767;45.636;11.756;2023-03-03T02:39:18;5.50;83.60
73137;DHT22;67767;45.636;11.756;2023-03-03T02:41:59;5.70;83.30
73137;DHT22;67767;45.636;11.756;2023-03-03T02:44:28;5.40;83.50
73137;DHT22;67767;45.636;11.756;2023-03-03T02:46:55;5.60;83.50
73137;DHT22;67767;45.636;11.756;2023-03-03T02:49:24;5.50;83.10
73137;DHT22;67767;45.636;11.756;2023-03-03T02:51:50;5.70;83.50
73137;DHT22;67767;45.636;11.756;2023-03-03T02:54:18;5.60;83.00
73137;DHT22;67767;45.636;11.756;2023-03-03T02:56:44;5.70;83.20
73137;DHT22;67767;45.636;11.756;2023-03-03T02:59:11;5.70;83.20
73137;DHT22;67767;45.636;11.756;2023-03-03T03:01:36;5.70;83.40
73137;DHT22;67767;45.636;11.756;2023-03-03T03:04:22;5.70;83.40
73137;DHT22;67767;45.636;11.756;2023-03-03T03:06:48;5.70;83.00
73137;DHT22;67767;45.636;11.756;2023-03-03T03:09:15;5.80;83.10
73137;DHT22;67767;45.636;11.756;2023-03-03T03:11:41;5.80;82.80
73137;DHT22;67767;45.636;11.756;2023-03-03T03:14:08;5.80;83.10
73137;DHT22;67767;45.636;11.756;2023-03-03T03:16:34;5.80;82.60
73137;DHT22;67767;45.636;11.756;2023-03-03T03:19:01;5.80;82.80
73137;DHT22;67767;45.636;11.756;2023-03-03T03:21:27;5.50;82.50
73137;DHT22;67767;45.636;11.756;2023-03-03T03:23:53;5.50;82.60
73137;DHT22;67767;45.636;11.756;2023-03-03T03:26:19;5.70;82.60
73137;DHT22;67767;45.636;11.756;2023-03-03T03:28:46;5.70;82.30
73137;DHT22;67767;45.636;11.756;2023-03-03T03:31:12;5.60;82.40
73137;DHT22;67767;45.636;11.756;2023-03-03T03:33:38;5.50;82.50
73137;DHT22;67767;45.636;11.756;2023-03-03T03:36:04;5.50;82.70
73137;DHT22;67767;45.636;11.756;2023-03-03T03:38:31;5.40;82.70
73137;DHT22;67767;45.636;11.756;2023-03-03T03:40:57;5.20;83.10
73137;DHT22;67767;45.636;11.756;2023-03-03T03:43:23;5.40;83.10
73137;DHT22;67767;45.636;11.756;2023-03-03T03:45:49;5.30;83.00
73137;DHT22;67767;45.636;11.756;2023-03-03T03:48:14;5.60;82.70
73137;DHT22;67767;45.636;11.756;2023-03-03T03:50:41;5.50;82.50
73137;DHT22;67767;45.636;11.756;2023-03-03T03:53:07;5.60;82.20
73137;DHT22;67767;45.636;11.756;2023-03-03T03:55:33;5.40;82.50
73137;DHT22;67767;45.636;11.756;2023-03-03T03:57:58;5.50;82.70
73137;DHT22;67767;45.636;11.756;2023-03-03T04:00:24;5.40;82.50
73137;DHT22;67767;45.636;11.756;2023-03-03T04:02:50;5.20;82.90
73137;DHT22;67767;45.636;11.756;2023-03-03T04:05:17;5.10;82.90
73137;DHT22;67767;45.636;11.756;2023-03-03T04:07:42;5.30;82.60
73137;DHT22;67767;45.636;11.756;2023-03-03T04:10:09;5.20;82.40
73137;DHT22;67767;45.636;11.756;2023-03-03T04:12:35;5.30;82.70
73137;DHT22;67767;45.636;11.756;2023-03-03T04:15:12;5.10;82.80
73137;DHT22;67767;45.636;11.756;2023-03-03T04:17:39;5.10;82.90
73137;DHT22;67767;45.636;11.756;2023-03-03T04:20:05;5.10;82.80
73137;DHT22;67767;45.636;11.756;2023-03-03T04:22:31;5.00;82.70
73137;DHT22;67767;45.636;11.756;2023-03-03T04:24:59;5.10;82.50
73137;DHT22;67767;45.636;11.756;2023-03-03T04:27:25;4.90;82.40
73137;DHT22;67767;45.636;11.756;2023-03-03T04:29:50;4.70;82.70
73137;DHT22;67767;45.636;11.756;2023-03-03T04:32:16;4.50;82.90
73137;DHT22;67767;45.636;11.756;2023-03-03T04:34:43;4.60;83.70
73137;DHT22;67767;45.636;11.756;2023-03-03T04:37:09;4.40;84.30
73137;DHT22;67767;45.636;11.756;2023-03-03T04:39:34;4.40;84.40
73137;DHT22;67767;45.636;11.756;2023-03-03T04:42:00;4.40;84.10
73137;DHT22;67767;45.636;11.756;2023-03-03T04:44:26;4.60;84.20
73137;DHT22;67767;45.636;11.756;2023-03-03T04:46:51;4.60;83.80
73137;DHT22;67767;45.636;11.756;2023-03-03T04:49:17;4.30;84.10
73137;DHT22;67767;45.636;11.756;2023-03-03T04:51:43;4.30;84.50
73137;DHT22;67767;45.636;11.756;2023-03-03T04:54:09;4.40;84.50
73137;DHT22;67767;45.636;11.756;2023-03-03T04:56:34;4.40;84.70
73137;DHT22;67767;45.636;11.756;2023-03-03T04:59:00;4.50;84.60
73137;DHT22;67767;45.636;11.756;2023-03-03T05:01:26;4.40;84.40
73137;DHT22;67767;45.636;11.756;2023-03-03T05:03:51;4.50;84.40
73137;DHT22;67767;45.636;11.756;2023-03-03T05:06:17;4.40;84.60
73137;DHT22;67767;45.636;11.756;2023-03-03T05:08:44;4.20;85.10
73137;DHT22;67767;45.636;11.756;2023-03-03T05:11:10;4.30;85.10
73137;DHT22;67767;45.636;11.756;2023-03-03T05:13:36;4.20;85.10
73137;DHT22;67767;45.636;11.756;2023-03-03T05:16:02;4.30;85.00
73137;DHT22;67767;45.636;11.756;2023-03-03T05:18:27;4.30;84.70
73137;DHT22;67767;45.636;11.756;2023-03-03T05:20:53;4.50;85.20
73137;DHT22;67767;45.636;11.756;2023-03-03T05:23:20;4.70;84.90
73137;DHT22;67767;45.636;11.756;2023-03-03T05:25:46;4.60;84.70
73137;DHT22;67767;45.636;11.756;2023-03-03T05:28:12;4.60;84.50
73137;DHT22;67767;45.636;11.756;2023-03-03T05:30:38;4.60;84.30
73137;DHT22;67767;45.636;11.756;2023-03-03T05:33:05;4.10;84.30
73137;DHT22;67767;45.636;11.756;2023-03-03T05:35:31;4.40;84.70
73137;DHT22;67767;45.636;11.756;2023-03-03T05:37:57;4.50;84.80
73137;DHT22;67767;45.636;11.756;2023-03-03T05:40:24;4.30;84.70
73137;DHT22;67767;45.636;11.756;2023-03-03T05:42:50;4.10;84.50
73137;DHT22;67767;45.636;11.756;2023-03-03T05:45:16;4.20;84.50
73137;DHT22;67767;45.636;11.756;2023-03-03T05:47:45;4.30;84.40
73137;DHT22;67767;45.636;11.756;2023-03-03T05:50:11;4.20;84.70
73137;DHT22;67767;45.636;11.756;2023-03-03T05:52:37;4.30;84.50
73137;DHT22;67767;45.636;11.756;2023-03-03T05:55:03;4.30;84.80
73137;DHT22;67767;45.636;11.756;2023-03-03T05:57:29;4.20;85.00
73137;DHT22;67767;45.636;11.756;2023-03-03T05:59:54;4.00;84.90
73137;DHT22;67767;45.636;11.756;2023-03-03T06:02:20;4.20;84.90
73137;DHT22;67767;45.636;11.756;2023-03-03T06:04:46;4.30;85.30
73137;DHT22;67767;45.636;11.756;2023-03-03T06:07:11;4.20;85.00
73137;DHT22;67767;45.636;11.756;2023-03-03T06:09:37;4.40;85.00
73137;DHT22;67767;45.636;11.756;2023-03-03T06:12:03;4.40;84.60
73137;DHT22;67767;45.636;11.756;2023-03-03T06:14:29;4.40;84.50
73137;DHT22;67767;45.636;11.756;2023-03-03T06:16:55;4.50;84.50
73137;DHT22;67767;45.636;11.756;2023-03-03T06:19:22;4.40;84.40
73137;DHT22;67767;45.636;11.756;2023-03-03T06:21:48;4.70;84.10
73137;DHT22;67767;45.636;11.756;2023-03-03T06:24:14;4.70;84.10
73137;DHT22;67767;45.636;11.756;2023-03-03T06:26:40;5.00;83.60
73137;DHT22;67767;45.636;11.756;2023-03-03T06:29:05;5.00;83.20
73137;DHT22;67767;45.636;11.756;2023-03-03T06:31:31;5.00;83.10
73137;DHT22;67767;45.636;11.756;2023-03-03T06:33:57;5.00;83.50
73137;DHT22;67767;45.636;11.756;2023-03-03T06:36:23;5.10;83.10
73137;DHT22;67767;45.636;11.756;2023-03-03T06:38:50;4.90;83.10
73137;DHT22;67767;45.636;11.756;2023-03-03T06:41:16;5.10;83.20
73137;DHT22;67767;45.636;11.756;2023-03-03T06:43:42;5.30;83.30
73137;DHT22;67767;45.636;11.756;2023-03-03T06:46:07;5.50;83.30
73137;DHT22;67767;45.636;11.756;2023-03-03T06:48:33;5.60;82.90
73137;DHT22;67767;45.636;11.756;2023-03-03T06:51:01;5.80;83.20
73137;DHT22;67767;45.636;11.756;2023-03-03T06:53:27;6.00;83.10
73137;DHT22;67767;45.636;11.756;2023-03-03T06:55:57;6.30;82.60
73137;DHT22;67767;45.636;11.756;2023-03-03T06:58:24;6.30;82.10
73137;DHT22;67767;45.636;11.756;2023-03-03T07:00:56;6.70;82.00
73137;DHT22;67767;45.636;11.756;2023-03-03T07:03:27;6.80;82.00
73137;DHT22;67767;45.636;11.756;2023-03-03T07:05:56;6.90;81.40
73137;DHT22;67767;45.636;11.756;2023-03-03T07:08:23;6.90;81.20
73137;DHT22;67767;45.636;11.756;2023-03-03T07:10:50;7.10;81.40
73137;DHT22;67767;45.636;11.756;2023-03-03T07:15:46;7.30;80.60
73137;DHT22;67767;45.636;11.756;2023-03-03T07:23:47;7.70;80.40
73137;DHT22;67767;45.636;11.756;2023-03-03T07:26:27;7.80;80.20
73137;DHT22;67767;45.636;11.756;2023-03-03T07:29:13;7.90;80.20
73137;DHT22;67767;45.636;11.756;2023-03-03T07:31:45;8.10;79.10
73137;DHT22;67767;45.636;11.756;2023-03-03T07:36:50;8.60;79.10
73137;DHT22;67767;45.636;11.756;2023-03-03T07:42:01;8.80;77.60
73137;DHT22;67767;45.636;11.756;2023-03-03T07:44:35;8.90;78.10
73137;DHT22;67767;45.636;11.756;2023-03-03T07:47:23;8.90;78.10
73137;DHT22;67767;45.636;11.756;2023-03-03T07:49:51;9.10;78.10
73137;DHT22;67767;45.636;11.756;2023-03-03T07:52:31;9.30;77.80
73137;DHT22;67767;45.636;11.756;2023-03-03T07:55:22;9.30;77.70
73137;DHT22;67767;45.636;11.756;2023-03-03T07:57:51;9.70;77.30
73137;DHT22;67767;45.636;11.756;2023-03-03T08:02:59;9.90;76.70
73137;DHT22;67767;45.636;11.756;2023-03-03T08:10:47;10.40;76.20
73137;DHT22;67767;45.636;11.756;2023-03-03T08:15:49;10.80;75.50
73137;DHT22;67767;45.636;11.756;2023-03-03T08:18:26;11.20;75.00
73137;DHT22;67767;45.636;11.756;2023-03-03T08:20:58;11.40;74.30
73137;DHT22;67767;45.636;11.756;2023-03-03T08:23:25;11.50;74.20
73137;DHT22;67767;45.636;11.756;2023-03-03T08:25:51;11.70;73.60
73137;DHT22;67767;45.636;11.756;2023-03-03T08:28:17;11.70;73.70
73137;DHT22;67767;45.636;11.756;2023-03-03T08:30:45;12.00;73.10
73137;DHT22;67767;45.636;11.756;2023-03-03T08:33:11;11.90;72.90
73137;DHT22;67767;45.636;11.756;2023-03-03T08:35:37;12.00;72.60
73137;DHT22;67767;45.636;11.756;2023-03-03T08:38:03;12.10;72.70
73137;DHT22;67767;45.636;11.756;2023-03-03T08:40:30;12.20;72.90
73137;DHT22;67767;45.636;11.756;2023-03-03T08:42:56;12.30;73.10
73137;DHT22;67767;45.636;11.756;2023-03-03T08:45:23;12.20;72.40
73137;DHT22;67767;45.636;11.756;2023-03-03T08:47:49;12.20;72.40
73137;DHT22;67767;45.636;11.756;2023-03-03T08:50:20;12.20;72.60
73137;DHT22;67767;45.636;11.756;2023-03-03T08:52:47;12.30;73.00
73137;DHT22;67767;45.636;11.756;2023-03-03T08:55:13;12.30;73.00
73137;DHT22;67767;45.636;11.756;2023-03-03T08:57:39;12.20;73.10
73137;DHT22;67767;45.636;11.756;2023-03-03T09:00:07;12.10;73.00
73137;DHT22;67767;45.636;11.756;2023-03-03T09:02:33;12.30;73.50
73137;DHT22;67767;45.636;11.756;2023-03-03T09:04:59;12.50;73.40
73137;DHT22;67767;45.636;11.756;2023-03-03T09:07:25;12.40;72.80
73137;DHT22;67767;45.636;11.756;2023-03-03T09:09:50;12.50;72.60
73137;DHT22;67767;45.636;11.756;2023-03-03T09:12:23;12.80;71.80
73137;DHT22;67767;45.636;11.756;2023-03-03T09:14:56;13.00;71.30
73137;DHT22;67767;45.636;11.756;2023-03-03T09:17:41;13.00;71.20
73137;DHT22;67767;45.636;11.756;2023-03-03T09:20:30;13.30;70.40
73137;DHT22;67767;45.636;11.756;2023-03-03T09:22:57;13.50;64.90
73137;DHT22;67767;45.636;11.756;2023-03-03T09:27:53;13.50;64.60
73137;DHT22;67767;45.636;11.756;2023-03-03T09:32:52;13.50;69.90
73137;DHT22;67767;45.636;11.756;2023-03-03T09:37:50;13.60;64.80
73137;DHT22;67767;45.636;11.756;2023-03-03T09:46:41;13.70;64.50
73137;DHT22;67767;45.636;11.756;2023-03-03T09:54:53;14.00;64.00
73137;DHT22;67767;45.636;11.756;2023-03-03T10:00:50;14.00;64.80
73137;DHT22;67767;45.636;11.756;2023-03-03T10:05:55;14.00;63.10
73137;DHT22;67767;45.636;11.756;2023-03-03T10:12:02;14.30;61.40
73137;DHT22;67767;45.636;11.756;2023-03-03T10:17:35;14.70;60.40
73137;DHT22;67767;45.636;11.756;2023-03-03T10:22:55;14.50;61.10
73137;DHT22;67767;45.636;11.756;2023-03-03T10:28:12;14.20;60.30
73137;DHT22;67767;45.636;11.756;2023-03-03T10:33:52;14.50;61.30
73137;DHT22;67767;45.636;11.756;2023-03-03T10:36:28;14.90;60.40
73137;DHT22;67767;45.636;11.756;2023-03-03T10:47:42;15.10;60.80
73137;DHT22;67767;45.636;11.756;2023-03-03T10:53:01;15.10;59.30
73137;DHT22;67767;45.636;11.756;2023-03-03T10:58:48;15.50;56.60
73137;DHT22;67767;45.636;11.756;2023-03-03T11:04:46;15.80;57.30
73137;DHT22;67767;45.636;11.756;2023-03-03T11:09:57;16.30;57.00
73137;DHT22;67767;45.636;11.756;2023-03-03T11:12:33;16.50;56.10
73137;DHT22;67767;45.636;11.756;2023-03-03T11:25:37;16.50;53.30
73137;DHT22;67767;45.636;11.756;2023-03-03T11:31:20;16.70;54.20
73137;DHT22;67767;45.636;11.756;2023-03-03T11:34:00;17.00;53.50
73137;DHT22;67767;45.636;11.756;2023-03-03T11:36:37;16.60;52.60
73137;DHT22;67767;45.636;11.756;2023-03-03T11:39:09;16.70;52.30
73137;DHT22;67767;45.636;11.756;2023-03-03T11:44:37;17.60;52.90
73137;DHT22;67767;45.636;11.756;2023-03-03T11:47:21;17.90;52.30
73137;DHT22;67767;45.636;11.756;2023-03-03T11:52:42;18.40;48.00
73137;DHT22;67767;45.636;11.756;2023-03-03T12:00:51;17.70;50.70
73137;DHT22;67767;45.636;11.756;2023-03-03T12:03:33;17.90;51.10
73137;DHT22;67767;45.636;11.756;2023-03-03T12:19:08;18.70;45.60
73137;DHT22;67767;45.636;11.756;2023-03-03T12:27:05;19.00;45.60
73137;DHT22;67767;45.636;11.756;2023-03-03T12:32:44;18.60;44.60
73137;DHT22;67767;45.636;11.756;2023-03-03T12:35:18;18.60;46.00
73137;DHT22;67767;45.636;11.756;2023-03-03T12:40:33;18.10;47.60
73137;DHT22;67767;45.636;11.756;2023-03-03T12:48:15;19.00;43.90
73137;DHT22;67767;45.636;11.756;2023-03-03T12:53:48;18.70;44.30
73137;DHT22;67767;45.636;11.756;2023-03-03T12:56:55;19.30;44.10
73137;DHT22;67767;45.636;11.756;2023-03-03T13:04:55;18.90;45.00
73137;DHT22;67767;45.636;11.756;2023-03-03T13:07:33;18.90;44.20
73137;DHT22;67767;45.636;11.756;2023-03-03T13:10:12;18.80;44.20
73137;DHT22;67767;45.636;11.756;2023-03-03T13:15:34;18.70;45.30
73137;DHT22;67767;45.636;11.756;2023-03-03T13:20:48;18.90;44.80
73137;DHT22;67767;45.636;11.756;2023-03-03T13:23:26;18.80;45.20
73137;DHT22;67767;45.636;11.756;2023-03-03T13:29:26;18.80;44.90
73137;DHT22;67767;45.636;11.756;2023-03-03T13:31:34;19.00;44.30
73137;DHT22;67767;45.636;11.756;2023-03-03T13:34:01;19.00;44.80
73137;DHT22;67767;45.636;11.756;2023-03-03T13:36:37;19.00;45.70
73137;DHT22;67767;45.636;11.756;2023-03-03T13:39:29;18.50;45.70
73137;DHT22;67767;45.636;11.756;2023-03-03T13:42:00;18.40;46.70
73137;DHT22;67767;45.636;11.756;2023-03-03T13:44:37;18.60;45.30
73137;DHT22;67767;45.636;11.756;2023-03-03T13:50:07;18.40;45.20
73137;DHT22;67767;45.636;11.756;2023-03-03T13:55:47;18.10;48.50
73137;DHT22;67767;45.636;11.756;2023-03-03T14:01:08;17.80;47.70
73137;DHT22;67767;45.636;11.756;2023-03-03T14:03:54;17.90;48.40
73137;DHT22;67767;45.636;11.756;2023-03-03T14:06:28;17.90;48.90
73137;DHT22;67767;45.636;11.756;2023-03-03T14:19:46;17.90;49.30
73137;DHT22;67767;45.636;11.756;2023-03-03T14:22:39;17.80;49.10
73137;DHT22;67767;45.636;11.756;2023-03-03T14:25:14;17.90;49.60
73137;DHT22;67767;45.636;11.756;2023-03-03T14:35:41;18.30;47.90
73137;DHT22;67767;45.636;11.756;2023-03-03T14:40:35;18.30;46.20
73137;DHT22;67767;45.636;11.756;2023-03-03T14:43:17;18.20;46.10
73137;DHT22;67767;45.636;11.756;2023-03-03T14:45:43;18.00;48.50
73137;DHT22;67767;45.636;11.756;2023-03-03T14:48:23;18.10;48.60
73137;DHT22;67767;45.636;11.756;2023-03-03T14:55:54;18.00;48.20
73137;DHT22;67767;45.636;11.756;2023-03-03T14:58:37;17.90;48.50
73137;DHT22;67767;45.636;11.756;2023-03-03T15:01:20;17.60;48.70
73137;DHT22;67767;45.636;11.756;2023-03-03T15:11:44;17.70;49.10
73137;DHT22;67767;45.636;11.756;2023-03-03T15:14:13;17.60;49.40
73137;DHT22;67767;45.636;11.756;2023-03-03T15:16:40;17.60;49.20
73137;DHT22;67767;45.636;11.756;2023-03-03T15:19:18;17.60;49.90
73137;DHT22;67767;45.636;11.756;2023-03-03T15:22:22;17.40;50.30
73137;DHT22;67767;45.636;11.756;2023-03-03T15:27:27;17.40;50.60
73137;DHT22;67767;45.636;11.756;2023-03-03T15:30:20;17.40;50.80
73137;DHT22;67767;45.636;11.756;2023-03-03T15:35:51;17.00;51.80
73137;DHT22;67767;45.636;11.756;2023-03-03T15:41:07;16.60;53.00
73137;DHT22;67767;45.636;11.756;2023-03-03T15:43:56;16.50;52.70
73137;DHT22;67767;45.636;11.756;2023-03-03T15:57:46;16.20;54.00
73137;DHT22;67767;45.636;11.756;2023-03-03T16:00:31;16.10;54.00
73137;DHT22;67767;45.636;11.756;2023-03-03T16:03:12;16.10;54.00
73137;DHT22;67767;45.636;11.756;2023-03-03T16:05:43;16.00;54.40
73137;DHT22;67767;45.636;11.756;2023-03-03T16:08:20;16.00;54.70
73137;DHT22;67767;45.636;11.756;2023-03-03T16:11:07;16.00;54.40
73137;DHT22;67767;45.636;11.756;2023-03-03T16:16:12;16.00;53.30
73137;DHT22;67767;45.636;11.756;2023-03-03T16:19:05;16.00;53.50
73137;DHT22;67767;45.636;11.756;2023-03-03T16:22:14;16.00;53.70
73137;DHT22;67767;45.636;11.756;2023-03-03T16:25:52;16.00;54.00
73137;DHT22;67767;45.636;11.756;2023-03-03T16:30:49;15.90;54.30
73137;DHT22;67767;45.636;11.756;2023-03-03T16:35:52;15.90;54.20
73137;DHT22;67767;45.636;11.756;2023-03-03T16:38:27;15.80;54.50
73137;DHT22;67767;45.636;11.756;2023-03-03T16:40:56;15.80;54.90
73137;DHT22;67767;45.636;11.756;2023-03-03T16:48:44;15.40;56.50
73137;DHT22;67767;45.636;11.756;2023-03-03T17:00:03;15.00;58.40
73137;DHT22;67767;45.636;11.756;2023-03-03T17:06:05;14.70;59.10
73137;DHT22;67767;45.636;11.756;2023-03-03T17:12:07;14.40;60.60
73137;DHT22;67767;45.636;11.756;2023-03-03T17:17:43;14.20;61.10
73137;DHT22;67767;45.636;11.756;2023-03-03T17:20:42;14.10;62.70
73137;DHT22;67767;45.636;11.756;2023-03-03T17:35:01;13.70;70.10
73137;DHT22;67767;45.636;11.756;2023-03-03T17:39:49;13.30;70.70
73137;DHT22;67767;45.636;11.756;2023-03-03T17:42:46;13.20;70.70
73137;DHT22;67767;45.636;11.756;2023-03-03T17:45:15;13.20;70.80
73137;DHT22;67767;45.636;11.756;2023-03-03T17:53:16;13.00;71.20
73137;DHT22;67767;45.636;11.756;2023-03-03T17:59:03;12.80;71.30
73137;DHT22;67767;45.636;11.756;2023-03-03T18:02:30;12.80;71.40
73137;DHT22;67767;45.636;11.756;2023-03-03T18:04:57;12.80;71.70
73137;DHT22;67767;45.636;11.756;2023-03-03T18:16:15;12.60;73.50
73137;DHT22;67767;45.636;11.756;2023-03-03T18:18:57;12.50;73.70
73137;DHT22;67767;45.636;11.756;2023-03-03T18:21:31;12.40;73.80
73137;DHT22;67767;45.636;11.756;2023-03-03T18:24:35;12.40;73.90
73137;DHT22;67767;45.636;11.756;2023-03-03T18:27:27;12.30;74.10
73137;DHT22;67767;45.636;11.756;2023-03-03T18:37:54;12.10;74.60
73137;DHT22;67767;45.636;11.756;2023-03-03T18:42:51;12.00;74.70
73137;DHT22;67767;45.636;11.756;2023-03-03T18:48:10;11.70;74.70
73137;DHT22;67767;45.636;11.756;2023-03-03T18:55:48;11.60;75.00
73137;DHT22;67767;45.636;11.756;2023-03-03T19:00:52;11.30;75.70
73137;DHT22;67767;45.636;11.756;2023-03-03T19:03:53;11.30;75.80
73137;DHT22;67767;45.636;11.756;2023-03-03T19:09:05;11.30;75.60
73137;DHT22;67767;45.636;11.756;2023-03-03T19:11:48;11.20;75.30
73137;DHT22;67767;45.636;11.756;2023-03-03T19:14:28;11.20;75.20
73137;DHT22;67767;45.636;11.756;2023-03-03T19:17:40;11.30;75.20
73137;DHT22;67767;45.636;11.756;2023-03-03T19:20:10;11.30;75.30
73137;DHT22;67767;45.636;11.756;2023-03-03T19:22:47;11.40;75.30
73137;DHT22;67767;45.636;11.756;2023-03-03T19:25:23;11.30;75.40
73137;DHT22;67767;45.636;11.756;2023-03-03T19:34:01;11.00;75.80
73137;DHT22;67767;45.636;11.756;2023-03-03T19:40:02;10.80;75.80
73137;DHT22;67767;45.636;11.756;2023-03-03T19:53:50;9.90;77.10
73137;DHT22;67767;45.636;11.756;2023-03-03T19:56:41;9.80;77.30
73137;DHT22;67767;45.636;11.756;2023-03-03T19:59:36;9.60;77.30
73137;DHT22;67767;45.636;11.756;2023-03-03T20:10:34;9.60;77.20
73137;DHT22;67767;45.636;11.756;2023-03-03T20:13:04;9.60;77.60
73137;DHT22;67767;45.636;11.756;2023-03-03T20:21:58;9.40;77.90
73137;DHT22;67767;45.636;11.756;2023-03-03T20:32:56;9.40;78.30
73137;DHT22;67767;45.636;11.756;2023-03-03T20:44:08;9.40;78.10
73137;DHT22;67767;45.636;11.756;2023-03-03T20:47:12;9.50;78.20
73137;DHT22;67767;45.636;11.756;2023-03-03T20:53:05;9.40;78.30
73137;DHT22;67767;45.636;11.756;2023-03-03T20:58:27;9.50;78.10
73137;DHT22;67767;45.636;11.756;2023-03-03T21:03:37;9.50;78.00
73137;DHT22;67767;45.636;11.756;2023-03-03T21:06:06;9.50;78.00
73137;DHT22;67767;45.636;11.756;2023-03-03T21:11:08;9.30;78.30
73137;DHT22;67767;45.636;11.756;2023-03-03T21:13:38;9.20;78.40
73137;DHT22;67767;45.636;11.756;2023-03-03T21:19:01;9.20;78.70
73137;DHT22;67767;45.636;11.756;2023-03-03T21:21:34;9.00;78.70
73137;DHT22;67767;45.636;11.756;2023-03-03T21:24:00;9.00;78.90
73137;DHT22;67767;45.636;11.756;2023-03-03T21:27:21;9.00;78.90
73137;DHT22;67767;45.636;11.756;2023-03-03T21:29:34;9.10;78.70
73137;DHT22;67767;45.636;11.756;2023-03-03T21:32:05;9.10;78.70
73137;DHT22;67767;45.636;11.756;2023-03-03T21:34:41;9.10;78.70
73137;DHT22;67767;45.636;11.756;2023-03-03T21:37:09;9.10;78.60
73137;DHT22;67767;45.636;11.756;2023-03-03T21:39:41;9.20;78.60
73137;DHT22;67767;45.636;11.756;2023-03-03T21:42:14;9.10;78.40
73137;DHT22;67767;45.636;11.756;2023-03-03T21:44:42;9.10;78.50
73137;DHT22;67767;45.636;11.756;2023-03-03T21:49:44;9.10;78.90
73137;DHT22;67767;45.636;11.756;2023-03-03T21:52:11;9.00;78.70
73137;DHT22;67767;45.636;11.756;2023-03-03T21:54:37;9.00;78.90
73137;DHT22;67767;45.636;11.756;2023-03-03T21:57:03;8.90;78.70
73137;DHT22;67767;45.636;11.756;2023-03-03T21:59:29;9.00;78.70
73137;DHT22;67767;45.636;11.756;2023-03-03T22:01:55;8.90;78.60
73137;DHT22;67767;45.636;11.756;2023-03-03T22:04:21;9.00;78.70
73137;DHT22;67767;45.636;11.756;2023-03-03T22:06:46;9.00;78.50
73137;DHT22;67767;45.636;11.756;2023-03-03T22:09:12;9.00;78.80
73137;DHT22;67767;45.636;11.756;2023-03-03T22:11:38;8.90;78.60
73137;DHT22;67767;45.636;11.756;2023-03-03T22:14:05;8.90;78.70
73137;DHT22;67767;45.636;11.756;2023-03-03T22:16:31;8.80;78.70
73137;DHT22;67767;45.636;11.756;2023-03-03T22:18:57;8.70;79.10
73137;DHT22;67767;45.636;11.756;2023-03-03T22:21:23;8.60;79.10
73137;DHT22;67767;45.636;11.756;2023-03-03T22:23:49;8.60;79.20